createdAt,value
2023-04-30T00:01:27.839Z,16.05
2023-04-30T00:03:54.891Z,18.33
2023-04-30T00:06:21.973Z,18.67
2023-04-30T00:08:48.920Z,15.10
2023-04-30T00:11:15.864Z,16.65
2023-04-30T00:13:43.668Z,16.65
2023-04-30T00:16:11.366Z,18.85
2023-04-30T00:18:38.982Z,19.83
2023-04-30T00:21:06.023Z,19.90
2023-04-30T00:23:32.896Z,23.65
2023-04-30T00:25:59.767Z,21.77
2023-04-30T00:28:26.716Z,23.33
2023-04-30T00:30:53.857Z,24.83
2023-04-30T00:33:20.855Z,23.12
2023-04-30T00:35:47.889Z,24.83
2023-04-30T00:38:14.802Z,23.27
2023-04-30T00:40:42.531Z,24.70
2023-04-30T00:43:09.604Z,24.15
2023-04-30T00:45:36.767Z,27.15
2023-04-30T00:48:03.798Z,21.92
2023-04-30T00:50:30.845Z,24.05
2023-04-30T00:52:59.677Z,25.55
2023-04-30T00:55:26.966Z,27.35
2023-04-30T00:57:54.377Z,27.58
2023-04-30T01:00:22.115Z,27.65
2023-04-30T01:02:49.982Z,27.77
2023-04-30T01:05:17.203Z,28.10
2023-04-30T01:07:46.444Z,32.88
2023-04-30T01:10:14.411Z,32.05
2023-04-30T01:12:59.186Z,37.05
2023-04-30T01:15:31.503Z,35.88
2023-04-30T01:18:08.003Z,33.65
2023-04-30T01:20:35.330Z,35.90
2023-04-30T01:23:17.289Z,37.47
2023-04-30T01:26:00.235Z,38.17
2023-04-30T01:28:28.391Z,42.45
2023-04-30T01:30:55.356Z,43.38
2023-04-30T01:33:22.233Z,44.80
2023-04-30T01:36:08.945Z,50.22
2023-04-30T01:39:10.828Z,43.35
2023-04-30T01:41:51.366Z,42.70
2023-04-30T01:44:30.162Z,42.67
2023-04-30T01:47:08.233Z,43.17
2023-04-30T01:50:14.545Z,43.87
2023-04-30T01:52:48.273Z,39.92
2023-04-30T01:55:20.924Z,37.92
2023-04-30T01:57:57.681Z,42.90
2023-04-30T02:00:26.282Z,38.28
2023-04-30T02:02:53.380Z,37.92
2023-04-30T02:05:20.462Z,37.83
2023-04-30T02:07:49.000Z,37.03
2023-04-30T02:10:17.497Z,37.05
2023-04-30T02:12:44.424Z,39.20
2023-04-30T02:15:11.740Z,34.85
2023-04-30T02:17:38.660Z,34.00
2023-04-30T02:20:06.221Z,34.08
2023-04-30T02:22:33.136Z,33.90
2023-04-30T02:24:59.991Z,32.88
2023-04-30T02:27:27.107Z,33.88
2023-04-30T02:29:54.297Z,32.05
2023-04-30T02:32:21.881Z,31.25
2023-04-30T02:34:48.789Z,26.95
2023-04-30T02:37:15.732Z,25.92
2023-04-30T02:39:42.671Z,29.60
2023-04-30T02:42:09.565Z,32.33
2023-04-30T02:44:36.402Z,27.95
2023-04-30T02:47:03.330Z,28.40
2023-04-30T02:49:30.313Z,28.42
2023-04-30T02:51:57.220Z,27.77
2023-04-30T02:54:24.335Z,27.27
2023-04-30T02:56:51.341Z,24.02
2023-04-30T02:59:18.276Z,25.73
2023-04-30T03:01:45.341Z,23.35
2023-04-30T03:04:12.345Z,25.42
2023-04-30T03:06:39.314Z,24.20
2023-04-30T03:09:06.226Z,26.33
2023-04-30T03:11:33.892Z,22.85
2023-04-30T03:14:00.853Z,24.20
2023-04-30T03:16:27.772Z,24.20
2023-04-30T03:18:54.665Z,25.23
2023-04-30T03:21:21.565Z,23.45
2023-04-30T03:23:49.061Z,27.42
2023-04-30T03:26:15.930Z,25.27
2023-04-30T03:28:42.798Z,26.12
2023-04-30T03:31:09.653Z,25.42
2023-04-30T03:33:36.653Z,24.75
2023-04-30T03:36:03.739Z,24.20
2023-04-30T03:38:31.174Z,23.98
2023-04-30T03:40:58.049Z,23.85
2023-04-30T03:43:24.971Z,24.05
2023-04-30T03:45:52.524Z,22.15
2023-04-30T03:48:20.056Z,24.30
2023-04-30T03:50:47.193Z,22.13
2023-04-30T03:53:14.088Z,20.33
2023-04-30T03:55:40.994Z,21.55
2023-04-30T03:58:08.402Z,20.00
2023-04-30T04:00:35.427Z,20.70
2023-04-30T04:03:02.417Z,20.23
2023-04-30T04:05:29.972Z,20.10
2023-04-30T04:07:57.052Z,20.75
2023-04-30T04:10:23.944Z,22.15
2023-04-30T04:12:51.059Z,19.50
2023-04-30T04:15:17.920Z,20.88
2023-04-30T04:17:44.810Z,19.12
2023-04-30T04:20:14.006Z,18.52
2023-04-30T04:22:41.141Z,16.77
2023-04-30T04:25:08.921Z,19.00
2023-04-30T04:27:35.980Z,15.88
2023-04-30T04:30:03.844Z,16.50
2023-04-30T04:32:32.845Z,14.82
2023-04-30T04:34:59.824Z,15.73
2023-04-30T04:37:27.192Z,14.82
2023-04-30T04:39:54.257Z,16.02
2023-04-30T04:42:21.378Z,15.68
2023-04-30T04:44:48.279Z,15.35
2023-04-30T04:47:16.851Z,15.48
2023-04-30T04:49:43.764Z,14.43
2023-04-30T04:52:10.738Z,14.48
2023-04-30T04:54:37.605Z,15.63
2023-04-30T04:57:04.474Z,14.63
2023-04-30T04:59:31.380Z,16.90
2023-04-30T05:01:58.267Z,16.05
2023-04-30T05:04:25.213Z,16.10
2023-04-30T05:06:52.126Z,14.75
2023-04-30T05:11:46.448Z,12.15
2023-04-30T05:14:13.384Z,13.95
2023-04-30T05:16:40.390Z,13.32
2023-04-30T05:19:09.893Z,14.10
2023-04-30T05:21:36.835Z,11.77
2023-04-30T05:24:04.458Z,14.20
2023-04-30T05:26:31.292Z,12.43
2023-04-30T05:28:58.271Z,12.48
2023-04-30T05:31:25.127Z,12.43
2023-04-30T05:33:51.975Z,13.50
2023-04-30T05:36:18.850Z,11.55
2023-04-30T05:38:45.744Z,9.98
2023-04-30T05:41:13.379Z,14.80
2023-04-30T05:43:40.296Z,12.27
2023-04-30T05:46:07.236Z,14.10
2023-04-30T05:48:34.123Z,12.07
2023-04-30T05:51:01.093Z,12.57
2023-04-30T05:53:28.062Z,11.60
2023-04-30T05:55:54.944Z,13.32
2023-04-30T05:58:21.861Z,12.30
2023-04-30T06:00:52.258Z,13.02
2023-04-30T06:03:19.709Z,11.40
2023-04-30T06:05:49.721Z,12.75
2023-04-30T06:08:16.681Z,12.85
2023-04-30T06:10:43.573Z,12.50
2023-04-30T06:13:10.474Z,12.93
2023-04-30T06:15:37.380Z,13.55
2023-04-30T06:18:04.401Z,13.55
2023-04-30T06:20:31.380Z,13.10
2023-04-30T06:22:58.317Z,13.35
2023-04-30T06:25:25.160Z,12.95
2023-04-30T06:27:54.234Z,12.27
2023-04-30T06:30:21.289Z,13.30
2023-04-30T06:32:48.235Z,14.27
2023-04-30T06:35:15.241Z,15.35
2023-04-30T06:37:42.149Z,13.88
2023-04-30T06:40:09.231Z,14.48
2023-04-30T06:42:36.156Z,15.15
2023-04-30T06:45:03.779Z,14.98
2023-04-30T06:47:34.880Z,14.05
2023-04-30T06:50:02.559Z,14.68
2023-04-30T06:52:30.341Z,14.98
2023-04-30T06:54:57.445Z,13.23
2023-04-30T06:57:25.816Z,14.73
2023-04-30T06:59:52.950Z,14.18
2023-04-30T07:02:21.940Z,13.10
2023-04-30T07:04:49.575Z,15.30
2023-04-30T07:07:16.547Z,14.13
2023-04-30T07:09:43.411Z,13.98
2023-04-30T07:12:12.201Z,16.12
2023-04-30T07:14:39.480Z,12.20
2023-04-30T07:17:06.346Z,13.25
2023-04-30T07:19:33.216Z,14.40
2023-04-30T07:22:00.155Z,13.88
2023-04-30T07:24:27.046Z,12.37
2023-04-30T07:26:53.920Z,13.52
2023-04-30T07:29:22.567Z,12.73
2023-04-30T07:31:49.496Z,13.15
2023-04-30T07:34:16.442Z,11.20
2023-04-30T07:36:43.753Z,11.63
2023-04-30T07:39:11.931Z,11.63
2023-04-30T07:41:38.826Z,12.68
2023-04-30T07:44:05.898Z,12.60
2023-04-30T07:46:32.935Z,11.93
2023-04-30T07:48:59.883Z,10.48
2023-04-30T07:51:27.168Z,12.73
2023-04-30T07:53:54.114Z,11.00
2023-04-30T07:56:21.779Z,11.57
2023-04-30T07:58:48.630Z,10.45
2023-04-30T08:01:15.841Z,11.10
2023-04-30T08:03:42.772Z,10.35
2023-04-30T08:06:09.844Z,11.80
2023-04-30T08:08:36.791Z,10.07
2023-04-30T08:11:03.830Z,9.25
2023-04-30T08:13:31.074Z,11.05
2023-04-30T08:15:57.956Z,14.00
2023-04-30T08:18:24.882Z,11.45
2023-04-30T08:20:51.779Z,12.05
2023-04-30T08:23:18.729Z,10.57
2023-04-30T08:25:45.748Z,8.93
2023-04-30T08:28:12.816Z,10.18
2023-04-30T08:30:39.971Z,8.80
2023-04-30T08:33:06.931Z,9.95
2023-04-30T08:35:33.814Z,9.80
2023-04-30T08:38:00.654Z,11.70
2023-04-30T08:40:43.381Z,10.95
2023-04-30T08:43:14.861Z,9.77
2023-04-30T08:45:42.757Z,11.95
2023-04-30T08:48:15.333Z,11.35
2023-04-30T08:50:42.305Z,13.50
2023-04-30T08:53:11.063Z,10.45
2023-04-30T08:55:40.117Z,10.18
2023-04-30T08:58:08.857Z,9.93
2023-04-30T09:00:38.449Z,9.68
2023-04-30T09:03:06.301Z,9.07
2023-04-30T09:05:33.235Z,9.63
2023-04-30T09:08:03.512Z,9.88
2023-04-30T09:10:34.897Z,8.98
2023-04-30T09:13:03.653Z,10.43
2023-04-30T09:15:31.239Z,7.68
2023-04-30T09:18:18.571Z,10.10
2023-04-30T09:21:05.711Z,10.52
2023-04-30T09:23:32.575Z,9.27
2023-04-30T09:26:00.895Z,9.18
2023-04-30T09:28:29.076Z,9.75
2023-04-30T09:30:59.788Z,10.20
2023-04-30T09:33:26.665Z,8.43
2023-04-30T09:35:53.619Z,8.82
2023-04-30T09:38:30.419Z,9.43
2023-04-30T09:41:01.400Z,11.07
2023-04-30T09:43:29.511Z,8.55
2023-04-30T09:45:58.780Z,9.68
2023-04-30T09:48:29.584Z,6.68
2023-04-30T09:50:56.939Z,7.10
2023-04-30T09:53:24.404Z,8.63
2023-04-30T09:55:52.002Z,8.32
2023-04-30T09:58:19.690Z,8.70
2023-04-30T10:00:48.562Z,6.03
2023-04-30T10:03:16.394Z,8.02
2023-04-30T10:05:47.565Z,8.15
2023-04-30T10:08:19.950Z,7.68
2023-04-30T10:10:49.564Z,5.90
2023-04-30T10:13:19.267Z,6.20
2023-04-30T10:15:52.026Z,7.15
2023-04-30T10:18:22.336Z,7.68
2023-04-30T10:20:51.492Z,6.95
2023-04-30T10:23:18.754Z,6.68
2023-04-30T10:25:46.076Z,5.72
2023-04-30T10:28:13.188Z,5.87
2023-04-30T10:30:42.359Z,4.55
2023-04-30T10:33:16.798Z,7.28
2023-04-30T10:35:49.780Z,8.25
2023-04-30T10:38:25.320Z,5.65
2023-04-30T10:40:57.277Z,7.43
2023-04-30T10:43:24.966Z,5.78
2023-04-30T10:45:52.058Z,9.85
2023-04-30T10:48:25.668Z,6.95
2023-04-30T10:50:55.280Z,6.55
2023-04-30T10:53:23.237Z,7.55
2023-04-30T10:55:55.153Z,7.57
2023-04-30T10:58:26.022Z,6.40
2023-04-30T11:01:06.493Z,6.65
2023-04-30T11:03:35.254Z,6.95
2023-04-30T11:06:08.808Z,5.62
2023-04-30T11:08:37.502Z,5.28
2023-04-30T11:11:05.492Z,4.12
2023-04-30T11:13:45.300Z,6.43
2023-04-30T11:16:12.427Z,7.20
2023-04-30T11:18:45.941Z,5.50
2023-04-30T11:21:13.585Z,6.57
2023-04-30T11:23:44.430Z,6.90
2023-04-30T11:26:11.661Z,5.30
2023-04-30T11:28:38.860Z,5.10
2023-04-30T11:31:06.014Z,8.40
2023-04-30T11:33:33.670Z,6.50
2023-04-30T11:36:01.898Z,6.22
2023-04-30T11:38:36.695Z,11.38
2023-04-30T11:41:04.710Z,5.10
2023-04-30T11:43:32.715Z,4.55
2023-04-30T11:46:05.252Z,4.55
2023-04-30T11:48:44.938Z,2.60
2023-04-30T11:51:22.135Z,5.03
2023-04-30T11:53:50.851Z,6.40
2023-04-30T11:56:21.609Z,4.93
2023-04-30T11:58:49.792Z,4.75
2023-04-30T12:01:17.173Z,5.85
2023-04-30T12:03:56.477Z,4.07
2023-04-30T12:06:28.924Z,4.82
2023-04-30T12:08:57.267Z,4.78
2023-04-30T12:11:26.107Z,5.68
2023-04-30T12:13:57.624Z,5.25
2023-04-30T12:16:25.904Z,4.50
2023-04-30T12:18:53.289Z,8.02
2023-04-30T12:21:22.863Z,5.22
2023-04-30T12:23:49.942Z,8.18
2023-04-30T12:26:17.975Z,5.97
2023-04-30T12:28:47.667Z,5.03
2023-04-30T12:31:14.535Z,5.22
2023-04-30T12:33:41.594Z,3.58
2023-04-30T12:36:11.405Z,3.25
2023-04-30T12:38:38.302Z,4.93
2023-04-30T12:41:05.484Z,3.53
2023-04-30T12:43:32.392Z,4.20
2023-04-30T12:45:59.783Z,7.53
2023-04-30T12:48:26.684Z,5.80
2023-04-30T12:51:01.579Z,5.07
2023-04-30T12:53:29.833Z,5.80
2023-04-30T12:56:17.083Z,4.78
2023-04-30T12:58:47.635Z,5.82
2023-04-30T13:01:18.335Z,4.00
2023-04-30T13:03:45.415Z,4.87
2023-04-30T13:06:12.604Z,3.15
2023-04-30T13:08:54.006Z,6.50
2023-04-30T13:11:26.445Z,7.60
2023-04-30T13:13:55.858Z,5.40
2023-04-30T13:16:25.092Z,5.30
2023-04-30T13:18:52.663Z,3.78
2023-04-30T13:21:19.802Z,4.25
2023-04-30T13:23:52.537Z,5.03
2023-04-30T13:26:22.803Z,5.00
2023-04-30T13:28:49.643Z,4.60
2023-04-30T13:31:16.633Z,3.90
2023-04-30T13:33:44.123Z,5.12
2023-04-30T13:36:11.007Z,5.30
2023-04-30T13:38:39.488Z,4.25
2023-04-30T13:41:06.837Z,4.90
2023-04-30T13:43:33.756Z,4.32
2023-04-30T13:46:00.649Z,4.60
2023-04-30T13:48:27.554Z,4.65
2023-04-30T13:50:54.884Z,4.10
2023-04-30T13:53:21.813Z,5.18
2023-04-30T13:55:48.743Z,6.47
2023-04-30T13:58:15.961Z,5.28
2023-04-30T14:00:43.095Z,5.32
2023-04-30T14:03:10.752Z,4.35
2023-04-30T14:05:37.786Z,4.00
2023-04-30T14:08:04.990Z,3.67
2023-04-30T14:10:32.814Z,4.40
2023-04-30T14:12:59.650Z,3.75
2023-04-30T14:15:27.819Z,4.68
2023-04-30T14:17:54.809Z,4.40
2023-04-30T14:20:21.870Z,5.07
2023-04-30T14:22:48.722Z,3.95
2023-04-30T14:25:15.711Z,4.87
2023-04-30T14:27:42.624Z,6.75
2023-04-30T14:30:10.499Z,5.30
2023-04-30T14:32:37.807Z,5.10
2023-04-30T14:35:05.499Z,6.05
2023-04-30T14:37:32.334Z,5.50
2023-04-30T14:40:00.524Z,5.95
2023-04-30T14:42:27.409Z,4.95
2023-04-30T14:44:54.567Z,5.45
2023-04-30T14:47:22.799Z,7.22
2023-04-30T14:49:52.324Z,4.95
2023-04-30T14:52:19.994Z,5.35
2023-04-30T14:54:46.894Z,3.85
2023-04-30T14:57:14.950Z,4.93
2023-04-30T14:59:42.141Z,5.55
2023-04-30T15:02:09.526Z,5.53
2023-04-30T15:04:36.490Z,5.97
2023-04-30T15:07:03.377Z,6.72
2023-04-30T15:09:30.416Z,7.05
2023-04-30T15:11:57.857Z,6.32
2023-04-30T15:14:24.792Z,5.82
2023-04-30T15:16:51.761Z,7.05
2023-04-30T15:19:18.604Z,4.85
2023-04-30T15:21:46.987Z,9.45
2023-04-30T15:24:16.202Z,6.72
2023-04-30T15:26:43.090Z,6.85
2023-04-30T15:29:10.752Z,7.97
2023-04-30T15:31:37.858Z,4.47
2023-04-30T15:34:04.734Z,5.47
2023-04-30T15:36:32.515Z,5.70
2023-04-30T15:38:59.658Z,6.60
2023-04-30T15:41:26.810Z,6.45
2023-04-30T15:43:53.729Z,7.07
2023-04-30T15:46:20.706Z,5.68
2023-04-30T15:48:47.564Z,6.32
2023-04-30T15:51:14.429Z,5.75
2023-04-30T15:53:41.301Z,8.45
2023-04-30T15:56:09.780Z,6.90
2023-04-30T15:58:36.780Z,5.03
2023-04-30T16:01:03.905Z,5.80
2023-04-30T16:03:31.726Z,9.05
2023-04-30T16:06:01.145Z,4.45
2023-04-30T16:08:28.198Z,6.62
2023-04-30T16:10:55.056Z,5.12
2023-04-30T16:13:21.959Z,5.15
2023-04-30T16:15:48.892Z,5.78
2023-04-30T16:18:17.719Z,7.05
2023-04-30T16:20:47.390Z,4.43
2023-04-30T16:23:14.664Z,5.53
2023-04-30T16:25:42.377Z,6.35
2023-04-30T16:28:09.226Z,8.57
2023-04-30T16:30:36.213Z,7.93
2023-04-30T16:33:03.299Z,6.53
2023-04-30T16:35:30.181Z,5.53
2023-04-30T16:37:57.104Z,7.22
2023-04-30T16:40:23.981Z,7.10
2023-04-30T16:42:50.914Z,5.00
2023-04-30T16:45:17.835Z,5.47
2023-04-30T16:47:45.411Z,5.78
2023-04-30T16:50:12.291Z,5.90
2023-04-30T16:52:39.168Z,5.85
2023-04-30T16:55:06.499Z,6.30
2023-04-30T16:57:33.521Z,7.70
2023-04-30T17:00:00.464Z,6.72
2023-04-30T17:02:27.636Z,7.25
2023-04-30T17:04:54.685Z,7.82
2023-04-30T17:07:21.645Z,6.15
2023-04-30T17:09:48.500Z,4.55
2023-04-30T17:12:15.364Z,8.15
2023-04-30T17:14:42.278Z,5.57
2023-04-30T17:17:09.119Z,6.28
2023-04-30T17:19:36.013Z,6.85
2023-04-30T17:22:03.083Z,7.20
2023-04-30T17:24:30.186Z,8.30
2023-04-30T17:26:58.328Z,5.97
2023-04-30T17:29:25.234Z,6.47
2023-04-30T17:31:52.253Z,6.47
2023-04-30T17:34:19.265Z,6.32
2023-04-30T17:36:46.233Z,6.20
2023-04-30T17:39:13.171Z,7.35
2023-04-30T17:41:40.088Z,7.55
2023-04-30T17:44:06.973Z,7.65
2023-04-30T17:46:34.020Z,6.87
2023-04-30T17:49:01.851Z,6.50
2023-04-30T17:51:31.874Z,8.60
2023-04-30T17:54:02.241Z,5.90
2023-04-30T17:56:33.305Z,6.78
2023-04-30T17:59:00.749Z,6.90
2023-04-30T18:01:27.792Z,7.10
2023-04-30T18:03:55.354Z,10.48
2023-04-30T18:06:22.490Z,8.90
2023-04-30T18:08:49.584Z,8.38
2023-04-30T18:11:16.649Z,8.18
2023-04-30T18:13:43.574Z,7.18
2023-04-30T18:16:10.834Z,8.23
2023-04-30T18:18:37.793Z,7.80
2023-04-30T18:21:04.786Z,7.55
2023-04-30T18:23:31.711Z,9.05
2023-04-30T18:25:58.548Z,8.25
2023-04-30T18:28:25.640Z,7.87
2023-04-30T18:30:52.463Z,6.95
2023-04-30T18:33:19.313Z,8.02
2023-04-30T18:35:51.652Z,10.25
2023-04-30T18:38:18.914Z,7.78
2023-04-30T18:40:45.896Z,9.10
2023-04-30T18:43:14.177Z,10.65
2023-04-30T18:45:41.241Z,7.10
2023-04-30T18:48:08.303Z,7.95
2023-04-30T18:50:35.244Z,6.07
2023-04-30T18:53:02.168Z,9.02
2023-04-30T18:55:29.033Z,7.53
2023-04-30T18:57:56.541Z,8.93
2023-04-30T19:00:23.430Z,7.40
2023-04-30T19:02:50.422Z,8.40
2023-04-30T19:05:17.544Z,7.25
2023-04-30T19:07:44.837Z,7.85
2023-04-30T19:10:11.711Z,9.48
2023-04-30T19:12:38.757Z,7.62
2023-04-30T19:15:08.360Z,9.70
2023-04-30T19:17:35.525Z,6.90
2023-04-30T19:20:02.533Z,8.52
2023-04-30T19:22:29.422Z,6.62
2023-04-30T19:24:56.310Z,6.72
2023-04-30T19:27:23.324Z,6.72
2023-04-30T19:29:52.862Z,9.35
2023-04-30T19:32:20.748Z,6.43
2023-04-30T19:34:47.742Z,6.40
2023-04-30T19:37:14.601Z,10.10
2023-04-30T19:39:41.474Z,6.95
2023-04-30T19:42:08.899Z,7.28
2023-04-30T19:44:36.144Z,8.63
2023-04-30T19:47:03.675Z,8.43
2023-04-30T19:49:30.691Z,8.50
2023-04-30T19:51:58.705Z,9.50
2023-04-30T19:54:25.561Z,7.65
2023-04-30T19:56:55.103Z,7.30
2023-04-30T19:59:22.164Z,8.00
2023-04-30T20:01:49.207Z,8.95
2023-04-30T20:04:16.128Z,7.00
2023-04-30T20:06:43.698Z,9.40
2023-04-30T20:09:10.823Z,8.70
2023-04-30T20:11:37.706Z,8.88
2023-04-30T20:14:04.712Z,6.87
2023-04-30T20:16:31.646Z,6.85
2023-04-30T20:18:58.730Z,6.95
2023-04-30T20:21:26.255Z,9.40
2023-04-30T20:23:53.145Z,7.25
2023-04-30T20:26:21.590Z,8.70
2023-04-30T20:28:48.501Z,7.12
2023-04-30T20:31:15.468Z,7.57
2023-04-30T20:33:42.577Z,7.45
2023-04-30T20:36:09.871Z,8.07
2023-04-30T20:38:36.787Z,8.38
2023-04-30T20:41:03.734Z,8.45
2023-04-30T20:43:30.590Z,7.95
2023-04-30T20:46:00.393Z,8.07
2023-04-30T20:48:27.489Z,8.82
2023-04-30T20:50:54.448Z,9.27
2023-04-30T20:53:21.366Z,7.78
2023-04-30T20:55:48.307Z,9.02
2023-04-30T20:58:15.248Z,8.48
2023-04-30T21:00:42.165Z,10.05
2023-04-30T21:03:09.716Z,9.10
2023-04-30T21:05:36.719Z,8.88
2023-04-30T21:08:03.728Z,8.25
2023-04-30T21:10:36.894Z,11.20
2023-04-30T21:13:05.481Z,8.75
2023-04-30T21:15:34.557Z,9.40
2023-04-30T21:18:01.480Z,8.80
2023-04-30T21:20:28.596Z,9.82
2023-04-30T21:22:56.684Z,9.18
2023-04-30T21:25:23.567Z,11.68
2023-04-30T21:27:50.530Z,8.98
2023-04-30T21:30:17.606Z,8.00
2023-04-30T21:32:47.224Z,8.48
2023-04-30T21:35:14.616Z,10.73
2023-04-30T21:37:42.159Z,9.68
2023-04-30T21:40:09.542Z,7.57
2023-04-30T21:42:36.485Z,8.13
2023-04-30T21:45:03.538Z,8.60
2023-04-30T21:47:30.932Z,10.15
2023-04-30T21:49:58.918Z,9.27
2023-04-30T21:52:26.174Z,9.20
2023-04-30T21:54:53.141Z,10.50
2023-04-30T21:57:20.001Z,8.30
2023-04-30T21:59:46.940Z,9.13
2023-04-30T22:02:23.259Z,9.20
2023-04-30T22:04:51.049Z,10.25
2023-04-30T22:07:17.947Z,9.68
2023-04-30T22:09:45.092Z,9.85
2023-04-30T22:12:12.320Z,9.82
2023-04-30T22:14:39.343Z,10.05
2023-04-30T22:17:06.274Z,8.80
2023-04-30T22:19:33.155Z,10.32
2023-04-30T22:22:00.072Z,9.38
2023-04-30T22:24:26.959Z,10.88
2023-04-30T22:26:54.141Z,10.30
2023-04-30T22:29:21.016Z,9.20
2023-04-30T22:31:47.973Z,12.30
2023-04-30T22:34:16.879Z,9.82
2023-04-30T22:36:44.553Z,10.20
2023-04-30T22:39:11.988Z,9.88
2023-04-30T22:41:39.158Z,11.50
2023-04-30T22:44:06.104Z,12.52
2023-04-30T22:46:34.974Z,12.02
2023-04-30T22:49:01.853Z,10.40
2023-04-30T22:51:28.800Z,9.82
2023-04-30T22:53:56.523Z,11.27
2023-04-30T22:56:23.479Z,9.93
2023-04-30T22:58:50.349Z,10.85
2023-04-30T23:01:17.621Z,11.60
2023-04-30T23:03:44.748Z,11.32
2023-04-30T23:06:12.067Z,11.65
2023-04-30T23:08:39.070Z,11.73
2023-04-30T23:11:06.130Z,13.10
2023-04-30T23:13:33.007Z,12.90
2023-04-30T23:16:01.482Z,13.02
2023-04-30T23:18:28.486Z,13.55
2023-04-30T23:20:59.004Z,12.70
2023-04-30T23:23:26.765Z,15.35
2023-04-30T23:25:54.887Z,15.07
2023-04-30T23:28:22.700Z,14.00
2023-04-30T23:30:56.048Z,13.80
2023-04-30T23:33:22.900Z,14.45
2023-04-30T23:35:49.770Z,15.48
2023-04-30T23:38:16.730Z,13.25
2023-04-30T23:40:44.635Z,12.90
2023-04-30T23:43:14.400Z,13.30
2023-04-30T23:45:44.896Z,13.00
2023-04-30T23:48:11.821Z,13.60
2023-04-30T23:50:38.693Z,12.40
2023-04-30T23:53:05.605Z,11.93
2023-04-30T23:55:32.994Z,12.18
2023-04-30T23:57:59.957Z,11.32
